Time;durP1;ratioP1;P1;durP2;ratioP2;P2;SDS_P1;SDS_P2;PMS_P1;PMS_P2;Temp;Humidity;BMP_temperature;BMP_pressure;BME280_temperature;BME280_humidity;BME280_pressure;Samples;Min_cycle;Max_cycle;Signal;HPM_P1;HPM_P2
2024/01/23 00:01:23;;;;;;;18.15;3.30;;;8.30;99.90;;;;;;5088433;28;20033;-60
2024/01/23 00:03:48;;;;;;;15.93;3.65;;;8.40;99.90;;;;;;5070660;28;20108;-60
2024/01/23 00:06:14;;;;;;;13.10;2.90;;;8.40;99.90;;;;;;5088487;28;20477;-60
2024/01/23 00:08:39;;;;;;;15.50;2.95;;;8.30;99.90;;;;;;5053891;28;20028;-60
2024/01/23 00:11:06;;;;;;;11.65;2.53;;;8.30;99.90;;;;;;5070648;28;20029;-60
2024/01/23 00:13:31;;;;;;;21.73;3.33;;;8.30;99.90;;;;;;5070222;28;20021;-60
2024/01/23 00:15:57;;;;;;;11.40;2.33;;;8.30;99.90;;;;;;5070584;28;20035;-60
2024/01/23 00:18:22;;;;;;;14.55;3.30;;;8.30;99.90;;;;;;5088269;28;20046;-59
2024/01/23 00:20:48;;;;;;;12.73;2.65;;;8.30;99.90;;;;;;5070273;28;20040;-60
2024/01/23 00:23:14;;;;;;;18.55;2.53;;;8.30;99.90;;;;;;5088314;28;20027;-60
2024/01/23 00:25:39;;;;;;;12.75;2.60;;;8.30;99.90;;;;;;5070763;28;20035;-59
2024/01/23 00:28:06;;;;;;;11.68;2.67;;;8.30;99.90;;;;;;5089496;28;20027;-59
2024/01/23 00:30:32;;;;;;;15.70;2.45;;;8.30;99.90;;;;;;5053352;28;20040;-59
2024/01/23 00:32:58;;;;;;;7.38;2.05;;;8.30;99.90;;;;;;5087943;28;20109;-59
2024/01/23 00:35:24;;;;;;;12.68;2.58;;;8.20;99.90;;;;;;5070155;28;20119;-59
2024/01/23 00:37:49;;;;;;;17.92;2.80;;;8.30;99.90;;;;;;5087854;28;20062;-59
2024/01/23 00:40:15;;;;;;;15.70;2.60;;;8.30;99.90;;;;;;5069804;28;20025;-59
2024/01/23 00:42:41;;;;;;;10.85;2.33;;;8.30;99.90;;;;;;5070395;28;20020;-60
2024/01/23 00:45:06;;;;;;;10.55;2.15;;;8.30;99.90;;;;;;5069833;28;20047;-59
2024/01/23 00:47:32;;;;;;;13.52;2.97;;;8.30;99.90;;;;;;5087777;28;20027;-60
2024/01/23 00:49:58;;;;;;;11.57;2.78;;;8.30;99.90;;;;;;5087623;28;20484;-59
2024/01/23 00:52:23;;;;;;;6.70;1.88;;;8.20;99.90;;;;;;5087509;28;20039;-59
2024/01/23 00:54:49;;;;;;;16.50;2.47;;;8.20;99.90;;;;;;5069790;28;20036;-59
2024/01/23 00:57:14;;;;;;;11.82;2.40;;;8.20;99.90;;;;;;5087693;28;20469;-60
2024/01/23 00:59:40;;;;;;;14.40;2.17;;;8.20;99.90;;;;;;5069057;28;20037;-59
2024/01/23 01:02:05;;;;;;;12.68;2.63;;;8.20;99.90;;;;;;5069452;28;20021;-59
2024/01/23 01:04:31;;;;;;;11.77;2.38;;;8.20;99.90;;;;;;5069668;28;20035;-59
2024/01/23 01:06:56;;;;;;;6.47;2.38;;;8.20;99.90;;;;;;5069297;28;20046;-59
2024/01/23 01:09:22;;;;;;;11.25;2.40;;;8.20;99.90;;;;;;5069439;28;20040;-59
2024/01/23 01:11:47;;;;;;;8.02;2.55;;;8.20;99.90;;;;;;5087235;28;20088;-60
2024/01/23 01:14:14;;;;;;;15.48;2.88;;;8.20;99.90;;;;;;5087148;28;20035;-59
2024/01/23 01:16:39;;;;;;;10.68;2.25;;;8.20;99.90;;;;;;5087163;28;20032;-59
2024/01/23 01:19:05;;;;;;;10.20;2.13;;;8.20;99.90;;;;;;5069234;28;20049;-59
2024/01/23 01:21:30;;;;;;;12.55;2.13;;;8.10;99.90;;;;;;5069015;28;20028;-59
2024/01/23 01:23:56;;;;;;;7.78;2.40;;;8.20;99.90;;;;;;5069072;28;20032;-59
2024/01/23 01:26:21;;;;;;;11.60;2.30;;;8.10;99.90;;;;;;5069174;28;20032;-59
2024/01/23 01:28:47;;;;;;;12.02;2.50;;;8.20;99.90;;;;;;5086863;28;20059;-59
2024/01/23 01:31:12;;;;;;;10.20;2.65;;;8.10;99.90;;;;;;5086942;28;20041;-59
2024/01/23 01:33:38;;;;;;;10.65;2.53;;;8.10;99.90;;;;;;5068833;28;20033;-59
2024/01/23 01:36:04;;;;;;;12.27;2.38;;;8.10;99.90;;;;;;5086681;28;20094;-59
2024/01/23 01:38:29;;;;;;;14.30;2.70;;;8.10;99.90;;;;;;5085860;28;20420;-59
2024/01/23 01:40:57;;;;;;;13.00;2.58;;;8.10;99.90;;;;;;5086996;28;20037;-59
2024/01/23 01:43:25;;;;;;;9.30;2.33;;;8.10;99.90;;;;;;5086760;28;20029;-60
2024/01/23 01:46:07;;;;;;;9.65;2.78;;;8.20;99.90;;;;;;5069001;28;20043;-60
2024/01/23 01:48:32;;;;;;;7.38;2.38;;;8.10;99.90;;;;;;5069648;28;20016;-59
2024/01/23 01:50:58;;;;;;;7.55;2.30;;;8.10;99.90;;;;;;5068642;28;20035;-60
2024/01/23 01:53:23;;;;;;;11.05;1.98;;;8.10;99.90;;;;;;5068508;28;20354;-59
2024/01/23 01:55:49;;;;;;;8.60;2.10;;;8.10;99.90;;;;;;5051906;28;20047;-59
2024/01/23 01:58:14;;;;;;;6.72;2.05;;;8.10;99.90;;;;;;5068692;28;20028;-59
2024/01/23 02:00:40;;;;;;;9.00;2.22;;;8.10;99.90;;;;;;5068470;28;20079;-59
2024/01/23 02:03:05;;;;;;;6.25;1.80;;;8.10;99.90;;;;;;5068435;28;20025;-50
2024/01/23 02:05:31;;;;;;;4.80;1.95;;;8.10;99.90;;;;;;5068425;28;20081;-50
2024/01/23 02:07:56;;;;;;;8.80;2.00;;;8.10;99.90;;;;;;5068618;28;20025;-50
2024/01/23 02:10:22;;;;;;;9.52;2.20;;;8.10;99.90;;;;;;5050702;28;20033;-50
2024/01/23 02:12:48;;;;;;;9.95;2.13;;;8.10;99.90;;;;;;5086358;28;20042;-50
2024/01/23 02:15:17;;;;;;;7.25;1.92;;;8.10;99.90;;;;;;5051503;28;20496;-50
2024/01/23 02:17:43;;;;;;;8.75;1.88;;;8.10;99.90;;;;;;5086350;28;20044;-50
2024/01/23 02:20:09;;;;;;;9.40;1.83;;;8.10;99.90;;;;;;5086002;28;20051;-50
2024/01/23 02:22:34;;;;;;;7.97;1.63;;;8.10;99.90;;;;;;5068506;28;20021;-50
2024/01/23 02:25:00;;;;;;;8.68;2.20;;;8.10;99.90;;;;;;5068260;28;20086;-50
2024/01/23 02:27:25;;;;;;;6.70;2.05;;;8.10;99.90;;;;;;5086460;28;20032;-50
2024/01/23 02:29:51;;;;;;;7.10;1.83;;;8.00;99.90;;;;;;5068615;28;20023;-50
2024/01/23 02:32:16;;;;;;;9.65;2.00;;;8.00;99.90;;;;;;5068053;28;20033;-50
2024/01/23 02:34:44;;;;;;;7.05;1.75;;;8.10;99.90;;;;;;5051516;28;20035;-50
2024/01/23 02:37:09;;;;;;;10.90;2.00;;;8.10;99.90;;;;;;5068481;28;20036;-50
2024/01/23 02:39:35;;;;;;;5.75;1.50;;;8.00;99.90;;;;;;5086149;28;20050;-50
2024/01/23 02:42:01;;;;;;;6.32;1.70;;;8.00;99.90;;;;;;5086195;28;20048;-50
2024/01/23 02:44:27;;;;;;;9.88;1.80;;;8.10;99.90;;;;;;5086089;28;20025;-50
2024/01/23 02:46:52;;;;;;;9.70;1.80;;;8.00;99.90;;;;;;5086096;28;20029;-50
2024/01/23 02:49:18;;;;;;;3.90;1.08;;;8.00;99.90;;;;;;5068099;28;20035;-50
2024/01/23 02:51:43;;;;;;;3.38;1.23;;;8.00;99.90;;;;;;5086062;28;20037;-50
2024/01/23 02:54:09;;;;;;;7.85;1.80;;;8.10;99.90;;;;;;5068032;28;20029;-50
2024/01/23 02:56:34;;;;;;;6.00;2.22;;;8.00;99.90;;;;;;5068006;28;20037;-50
2024/01/23 02:59:03;;;;;;;6.40;1.75;;;8.10;99.90;;;;;;5067692;28;20052;-50
2024/01/23 03:01:28;;;;;;;5.45;1.42;;;8.00;99.90;;;;;;5086009;28;20040;-50
2024/01/23 03:03:54;;;;;;;6.13;2.03;;;8.00;99.90;;;;;;5085872;28;20020;-50
2024/01/23 03:06:22;;;;;;;6.90;1.88;;;8.00;99.90;;;;;;5086053;28;20046;-50
2024/01/23 03:08:48;;;;;;;6.38;2.08;;;8.00;99.90;;;;;;5068034;28;20021;-50
2024/01/23 03:11:13;;;;;;;7.00;1.77;;;8.00;99.90;;;;;;5067671;28;20032;-50
2024/01/23 03:13:39;;;;;;;6.57;1.70;;;8.00;99.90;;;;;;5068101;28;20017;-50
2024/01/23 03:16:05;;;;;;;6.28;1.65;;;8.00;99.90;;;;;;5086201;28;20032;-50
2024/01/23 03:18:31;;;;;;;5.15;1.73;;;8.00;99.90;;;;;;5085861;28;20025;-50
2024/01/23 03:20:56;;;;;;;6.30;1.88;;;8.00;99.90;;;;;;5067705;28;20429;-50
2024/01/23 03:23:22;;;;;;;4.47;1.42;;;8.00;99.90;;;;;;5071428;28;20017;-50
2024/01/23 03:25:47;;;;;;;5.90;2.00;;;8.00;99.90;;;;;;5089322;28;20033;-50
2024/01/23 03:28:13;;;;;;;10.27;1.95;;;8.00;99.90;;;;;;5071236;28;20024;-50
2024/01/23 03:30:39;;;;;;;7.32;1.58;;;8.10;99.90;;;;;;5071451;28;20036;-50
2024/01/23 03:33:04;;;;;;;4.40;1.80;;;8.00;99.90;;;;;;5071390;28;20483;-50
2024/01/23 03:35:31;;;;;;;3.38;1.40;;;8.00;99.90;;;;;;5071256;28;20453;-50
2024/01/23 03:37:56;;;;;;;4.22;1.20;;;8.00;99.90;;;;;;5071351;28;20028;-50
2024/01/23 03:40:22;;;;;;;5.07;2.15;;;8.00;99.90;;;;;;5070974;28;20028;-50
2024/01/23 03:42:48;;;;;;;4.65;1.55;;;8.00;99.90;;;;;;5089025;28;20081;-50
2024/01/23 03:45:14;;;;;;;5.28;1.27;;;8.00;99.90;;;;;;5070768;28;20021;-50
2024/01/23 03:47:39;;;;;;;6.40;1.40;;;7.90;99.90;;;;;;5088518;28;20032;-50
2024/01/23 03:50:05;;;;;;;4.47;1.80;;;7.90;99.90;;;;;;5070982;28;20023;-50
2024/01/23 03:52:31;;;;;;;3.30;1.27;;;7.90;99.90;;;;;;5071079;28;20051;-50
2024/01/23 03:54:57;;;;;;;7.68;1.85;;;7.90;99.90;;;;;;5087369;28;20046;-50
2024/01/23 03:57:22;;;;;;;3.63;1.40;;;7.90;99.90;;;;;;5070833;28;20040;-50
2024/01/23 03:59:49;;;;;;;5.35;1.50;;;7.90;99.90;;;;;;5088674;28;20067;-50
2024/01/23 04:02:14;;;;;;;7.47;1.58;;;7.90;99.90;;;;;;5088766;28;20024;-50
2024/01/23 04:04:40;;;;;;;4.93;1.38;;;7.90;99.90;;;;;;5088692;28;20024;-50
2024/01/23 04:07:05;;;;;;;3.28;1.27;;;7.90;99.90;;;;;;5070472;28;20041;-50
2024/01/23 04:09:31;;;;;;;5.82;1.40;;;7.90;99.90;;;;;;5088578;28;20033;-50
2024/01/23 04:11:56;;;;;;;4.13;1.60;;;7.90;99.90;;;;;;5070460;28;20086;-50
2024/01/23 04:14:22;;;;;;;3.35;1.30;;;7.90;99.90;;;;;;5088493;28;20022;-50
2024/01/23 04:16:48;;;;;;;3.10;1.50;;;7.90;99.90;;;;;;5088519;28;20032;-50
2024/01/23 04:19:13;;;;;;;3.30;1.27;;;7.90;99.90;;;;;;5070250;28;20035;-50
2024/01/23 04:21:39;;;;;;;3.38;1.20;;;7.90;99.90;;;;;;5088094;28;20029;-50
2024/01/23 04:24:05;;;;;;;5.43;1.45;;;7.90;99.90;;;;;;5070346;28;20048;-50
2024/01/23 04:26:31;;;;;;;5.22;1.35;;;7.90;99.90;;;;;;5070316;28;20059;-50
2024/01/23 04:28:57;;;;;;;4.68;1.50;;;7.90;99.90;;;;;;5070460;28;20024;-50
2024/01/23 04:31:25;;;;;;;2.17;1.15;;;7.90;99.90;;;;;;5070151;28;20028;-50
2024/01/23 04:33:52;;;;;;;2.63;0.95;;;7.90;99.90;;;;;;5087073;28;20029;-50
2024/01/23 04:36:18;;;;;;;3.25;1.00;;;7.90;99.90;;;;;;5070257;28;20075;-50
2024/01/23 04:38:46;;;;;;;1.83;1.05;;;7.80;99.90;;;;;;5087830;28;20024;-50
2024/01/23 04:41:12;;;;;;;6.28;1.33;;;7.90;99.90;;;;;;5069707;28;20033;-50
2024/01/23 04:43:38;;;;;;;5.82;1.48;;;7.80;99.90;;;;;;5087851;28;20094;-50
2024/01/23 04:46:05;;;;;;;5.30;1.35;;;7.80;99.90;;;;;;5070002;28;20028;-50
2024/01/23 04:48:30;;;;;;;4.32;1.27;;;7.80;99.90;;;;;;5087754;28;20042;-50
2024/01/23 04:50:56;;;;;;;2.25;1.05;;;7.80;99.90;;;;;;5087697;28;20103;-50
2024/01/23 04:53:22;;;;;;;3.15;1.05;;;7.80;99.90;;;;;;5087644;28;20040;-50
2024/01/23 04:55:48;;;;;;;7.80;1.20;;;7.80;99.90;;;;;;5087760;28;20038;-50
2024/01/23 04:58:14;;;;;;;3.72;1.40;;;7.80;99.90;;;;;;5087368;28;20050;-50
2024/01/23 05:00:39;;;;;;;3.90;1.20;;;7.80;99.90;;;;;;5069524;28;20024;-50
2024/01/23 05:03:05;;;;;;;9.32;2.38;;;7.80;99.90;;;;;;5069441;28;20024;-50
2024/01/23 05:05:32;;;;;;;12.98;1.90;;;7.80;99.90;;;;;;5087312;28;20024;-50
2024/01/23 05:07:58;;;;;;;4.97;1.10;;;7.80;99.90;;;;;;5087138;28;20028;-50
2024/01/23 05:10:26;;;;;;;6.82;1.35;;;7.80;99.90;;;;;;5069321;28;20058;-50
2024/01/23 05:12:52;;;;;;;4.18;1.15;;;7.80;99.90;;;;;;5069817;28;20025;-50
2024/01/23 05:15:17;;;;;;;3.75;1.00;;;7.80;99.90;;;;;;5069397;28;20031;-50
2024/01/23 05:17:43;;;;;;;3.13;0.98;;;7.80;99.90;;;;;;5069355;28;20025;-50
2024/01/23 05:20:09;;;;;;;4.15;1.40;;;7.80;99.90;;;;;;5086863;28;20025;-50
2024/01/23 05:22:35;;;;;;;2.55;1.25;;;7.70;99.90;;;;;;5069197;28;20048;-50
2024/01/23 05:25:01;;;;;;;4.72;1.13;;;7.80;99.90;;;;;;5086862;28;20046;-50
2024/01/23 05:27:26;;;;;;;4.07;1.48;;;7.70;99.90;;;;;;5069025;28;20025;-50
2024/01/23 05:29:55;;;;;;;2.80;1.30;;;7.70;99.90;;;;;;5069101;28;20023;-50
2024/01/23 05:32:21;;;;;;;5.40;1.25;;;7.70;99.90;;;;;;5086858;28;20032;-50
2024/01/23 05:34:46;;;;;;;7.63;1.38;;;7.70;99.90;;;;;;5069113;28;20039;-50
2024/01/23 05:37:12;;;;;;;4.63;1.40;;;7.70;99.90;;;;;;5086523;28;20040;-50
2024/01/23 05:39:38;;;;;;;4.30;1.50;;;7.70;99.90;;;;;;5052081;28;20078;-50
2024/01/23 05:42:04;;;;;;;5.70;1.50;;;7.70;99.90;;;;;;5086619;28;20107;-50
2024/01/23 05:44:30;;;;;;;3.25;1.55;;;7.70;99.90;;;;;;5068445;28;20016;-50
2024/01/23 05:46:56;;;;;;;4.40;1.63;;;7.70;99.90;;;;;;5068695;28;20046;-50
2024/01/23 05:49:21;;;;;;;4.35;1.20;;;7.70;99.90;;;;;;5068749;28;20119;-50
2024/01/23 05:51:47;;;;;;;5.03;1.38;;;7.70;99.90;;;;;;5086647;28;20037;-50
2024/01/23 05:54:13;;;;;;;5.50;1.63;;;7.70;99.90;;;;;;5086540;28;20103;-50
2024/01/23 05:56:38;;;;;;;7.55;1.63;;;7.70;99.90;;;;;;5068567;28;20052;-49
2024/01/23 05:59:04;;;;;;;6.93;1.58;;;7.70;99.90;;;;;;5068540;28;20021;-50
2024/01/23 06:01:33;;;;;;;13.48;2.17;;;7.70;99.90;;;;;;5086503;28;20029;-50
2024/01/23 06:03:59;;;;;;;8.35;1.73;;;7.70;99.90;;;;;;5068180;28;20062;-50
2024/01/23 06:06:25;;;;;;;11.77;2.13;;;7.70;99.90;;;;;;5068677;28;20028;-50
2024/01/23 06:08:50;;;;;;;5.68;1.67;;;7.70;99.90;;;;;;5086200;28;20021;-49
2024/01/23 06:11:16;;;;;;;10.32;2.38;;;7.70;99.90;;;;;;5080021;28;20054;-50
2024/01/23 06:13:42;;;;;;;11.15;2.10;;;7.70;99.90;;;;;;5084504;28;20459;-50
2024/01/23 06:16:07;;;;;;;13.13;2.20;;;7.80;99.90;;;;;;5085378;28;20044;-50
2024/01/23 06:18:35;;;;;;;14.10;2.35;;;7.70;99.90;;;;;;5085942;28;20388;-50
2024/01/23 06:21:01;;;;;;;15.82;2.92;;;7.70;99.90;;;;;;5086204;28;20033;-50
2024/01/23 06:23:27;;;;;;;27.23;3.90;;;7.80;99.90;;;;;;5085008;28;20076;-50
2024/01/23 06:25:52;;;;;;;17.02;2.95;;;7.80;99.90;;;;;;5086097;28;20036;-50
2024/01/23 06:28:18;;;;;;;18.75;3.33;;;7.70;99.90;;;;;;5085915;28;20027;-50
2024/01/23 06:30:44;;;;;;;14.15;2.58;;;7.70;99.90;;;;;;5086140;28;20461;-50
2024/01/23 06:33:09;;;;;;;39.05;4.88;;;7.70;99.90;;;;;;5086151;28;20035;-50
2024/01/23 06:35:36;;;;;;;23.55;3.30;;;7.70;99.90;;;;;;5084602;28;20045;-50
2024/01/23 06:38:01;;;;;;;21.58;2.63;;;7.70;99.90;;;;;;5087012;28;20035;-49
2024/01/23 06:40:27;;;;;;;26.60;3.58;;;7.70;99.90;;;;;;5087462;28;20037;-50
2024/01/23 06:42:52;;;;;;;25.83;3.28;;;7.70;99.90;;;;;;5086952;28;20031;-50
2024/01/23 06:45:18;;;;;;;28.50;4.75;;;7.70;99.90;;;;;;5085710;28;20017;-50
2024/01/23 06:47:43;;;;;;;24.83;3.10;;;7.70;99.90;;;;;;5068096;28;20442;-50
2024/01/23 06:50:09;;;;;;;24.27;3.55;;;7.70;99.90;;;;;;5085983;28;20084;-50
2024/01/23 06:52:35;;;;;;;27.92;3.63;;;7.70;99.90;;;;;;5085168;28;20025;-50
2024/01/23 06:55:01;;;;;;;23.50;3.10;;;7.70;99.90;;;;;;5085759;28;20035;-50
2024/01/23 06:57:26;;;;;;;18.15;4.32;;;7.70;99.90;;;;;;5088216;28;20477;-50
2024/01/23 06:59:52;;;;;;;21.73;3.70;;;7.70;99.90;;;;;;5089834;28;20031;-50
2024/01/23 07:02:18;;;;;;;17.17;3.83;;;7.70;99.90;;;;;;5088307;28;20047;-50
2024/01/23 07:04:43;;;;;;;24.83;3.97;;;7.70;99.90;;;;;;5071328;28;20080;-50
2024/01/23 07:07:09;;;;;;;19.73;4.13;;;7.70;99.90;;;;;;5089723;28;20048;-50
2024/01/23 07:09:35;;;;;;;24.70;3.45;;;7.70;99.90;;;;;;5055216;28;20054;-50
2024/01/23 07:12:00;;;;;;;18.20;3.97;;;7.80;99.90;;;;;;5089669;28;20043;-50
2024/01/23 07:14:26;;;;;;;18.35;3.20;;;7.70;99.90;;;;;;5089292;28;20468;-50
2024/01/23 07:16:51;;;;;;;20.90;3.75;;;7.70;99.90;;;;;;5089220;28;20392;-50
2024/01/23 07:19:17;;;;;;;18.42;3.22;;;7.70;99.90;;;;;;5089193;28;20036;-50
2024/01/23 07:21:42;;;;;;;17.92;3.58;;;7.70;99.90;;;;;;5089006;28;20029;-50
2024/01/23 07:24:09;;;;;;;15.98;3.38;;;7.70;99.90;;;;;;5054455;28;20380;-50
2024/01/23 07:26:35;;;;;;;12.82;3.00;;;7.70;99.90;;;;;;5071531;28;20033;-50
2024/01/23 07:29:02;;;;;;;11.35;2.65;;;7.70;99.90;;;;;;5089277;28;20028;-50
2024/01/23 07:31:29;;;;;;;16.05;3.00;;;7.70;99.90;;;;;;5089099;28;20366;-50
2024/01/23 07:33:54;;;;;;;17.25;2.85;;;7.70;99.90;;;;;;5089124;28;20048;-50
2024/01/23 07:36:20;;;;;;;10.80;2.67;;;7.70;99.90;;;;;;5088869;28;20040;-50
2024/01/23 07:38:46;;;;;;;16.58;2.58;;;7.70;99.90;;;;;;5089073;28;20084;-50
2024/01/23 07:41:11;;;;;;;18.58;3.33;;;7.70;99.90;;;;;;5070967;28;20051;-50
2024/01/23 07:43:37;;;;;;;15.73;2.72;;;7.70;99.90;;;;;;5070969;28;20027;-50
2024/01/23 07:46:02;;;;;;;15.18;3.42;;;7.70;99.90;;;;;;5088890;28;20088;-50
2024/01/23 07:48:29;;;;;;;13.27;2.83;;;7.70;99.90;;;;;;5070943;28;20020;-50
2024/01/23 07:50:54;;;;;;;13.75;3.13;;;7.70;99.90;;;;;;5070559;28;20036;-50
2024/01/23 07:53:20;;;;;;;25.33;4.45;;;7.70;99.90;;;;;;5082841;28;20043;-50
2024/01/23 07:55:45;;;;;;;23.38;3.25;;;7.70;99.90;;;;;;5090597;28;20125;-50
2024/01/23 07:58:13;;;;;;;22.88;3.63;;;7.70;99.90;;;;;;5104629;28;20029;-50
2024/01/23 08:00:40;;;;;;;19.52;3.30;;;7.70;99.90;;;;;;5087920;28;20043;-50
2024/01/23 08:03:06;;;;;;;27.42;4.78;;;7.70;99.90;;;;;;5079589;28;20024;-50
2024/01/23 08:05:31;;;;;;;28.40;3.67;;;7.70;99.90;;;;;;5073684;28;20036;-50
2024/01/23 08:07:57;;;;;;;18.92;4.13;;;7.70;99.90;;;;;;5105258;28;20036;-50
2024/01/23 08:10:24;;;;;;;20.70;3.70;;;7.70;99.90;;;;;;5058457;28;20071;-50
2024/01/23 08:12:50;;;;;;;22.25;4.05;;;7.70;99.90;;;;;;5078968;28;20050;-50
2024/01/23 08:15:17;;;;;;;15.88;3.28;;;7.80;99.90;;;;;;5077230;28;20025;-50
2024/01/23 08:17:43;;;;;;;15.23;2.85;;;7.80;99.90;;;;;;5085033;28;20036;-50
2024/01/23 08:20:10;;;;;;;15.38;3.35;;;7.80;99.90;;;;;;5090579;28;20036;-50
2024/01/23 08:22:35;;;;;;;15.70;3.50;;;7.80;99.90;;;;;;5101654;28;20066;-50
2024/01/23 08:25:01;;;;;;;23.48;3.70;;;7.80;99.90;;;;;;5097133;28;20020;-50
2024/01/23 08:27:27;;;;;;;21.48;3.47;;;7.80;99.90;;;;;;5076428;28;20035;-50
2024/01/23 08:29:52;;;;;;;26.02;3.83;;;7.80;99.90;;;;;;5104555;28;20020;-50
2024/01/23 08:32:18;;;;;;;29.05;4.32;;;7.80;99.90;;;;;;5091382;28;20119;-50
2024/01/23 08:34:44;;;;;;;36.75;5.28;;;7.80;99.90;;;;;;5065151;28;20032;-50
2024/01/23 08:37:10;;;;;;;32.90;5.25;;;7.80;99.90;;;;;;5078718;28;20051;-50
2024/01/23 08:39:35;;;;;;;62.33;9.40;;;7.80;99.90;;;;;;5081615;28;20028;-50
2024/01/23 08:42:01;;;;;;;46.17;6.20;;;7.80;99.90;;;;;;5094513;28;20453;-50
2024/01/23 08:44:29;;;;;;;46.60;5.53;;;7.90;99.90;;;;;;5078206;28;20064;-49
2024/01/23 08:46:55;;;;;;;32.42;4.63;;;7.90;99.90;;;;;;5079882;28;20465;-49
2024/01/23 08:49:20;;;;;;;31.42;5.00;;;7.90;99.90;;;;;;5088467;28;20038;-50
2024/01/23 08:51:46;;;;;;;61.30;6.75;;;7.90;99.90;;;;;;5102402;28;20032;-50
2024/01/23 08:54:13;;;;;;;80.22;9.48;;;7.90;99.90;;;;;;5090652;28;20030;-50
2024/01/23 08:56:39;;;;;;;37.80;6.25;;;7.90;99.90;;;;;;5082665;28;20036;-50
2024/01/23 08:59:04;;;;;;;34.50;4.75;;;8.00;99.90;;;;;;5062902;28;20024;-50
2024/01/23 09:01:30;;;;;;;56.22;6.43;;;8.00;99.90;;;;;;5093191;28;20036;-50
2024/01/23 09:03:56;;;;;;;48.75;5.20;;;8.00;99.90;;;;;;5085560;28;20028;-50
2024/01/23 09:06:22;;;;;;;38.15;5.70;;;8.00;99.90;;;;;;5091475;28;20032;-50
2024/01/23 09:08:47;;;;;;;35.25;4.30;;;8.00;99.90;;;;;;5081035;28;20028;-50
2024/01/23 09:11:13;;;;;;;39.83;5.28;;;8.00;99.90;;;;;;5086890;28;20039;-50
2024/01/23 09:13:38;;;;;;;48.90;5.25;;;8.00;99.90;;;;;;5085659;28;20051;-50
2024/01/23 09:16:04;;;;;;;53.53;5.97;;;8.10;99.90;;;;;;5084570;28;20034;-50
2024/01/23 09:18:30;;;;;;;45.22;6.72;;;8.10;99.90;;;;;;5085085;28;20614;-50
2024/01/23 09:20:56;;;;;;;35.08;5.75;;;8.10;99.90;;;;;;5084316;28;20033;-50
2024/01/23 09:23:23;;;;;;;34.33;4.82;;;8.10;99.90;;;;;;5083632;28;20080;-50
2024/01/23 09:25:49;;;;;;;32.15;3.67;;;8.20;99.90;;;;;;5089699;28;20048;-50
2024/01/23 09:28:15;;;;;;;25.70;4.40;;;8.10;99.90;;;;;;5087433;28;20024;-50
2024/01/23 09:30:40;;;;;;;35.13;4.93;;;8.10;99.90;;;;;;5083751;28;20483;-50
2024/01/23 09:33:06;;;;;;;25.35;4.15;;;8.10;99.90;;;;;;5071365;28;20909;-50
2024/01/23 09:35:32;;;;;;;28.92;4.50;;;8.10;99.90;;;;;;5087126;28;20724;-50
2024/01/23 09:37:58;;;;;;;37.40;4.63;;;8.20;99.90;;;;;;5070896;28;20032;-50
2024/01/23 09:40:23;;;;;;;28.05;4.50;;;8.20;99.90;;;;;;5070593;28;20057;-50
2024/01/23 09:42:49;;;;;;;43.85;5.00;;;8.20;99.90;;;;;;5071656;28;20025;-50
2024/01/23 09:45:17;;;;;;;48.75;5.82;;;8.20;99.90;;;;;;5052818;28;20025;-50
2024/01/23 09:47:44;;;;;;;51.10;4.75;;;8.00;99.90;;;;;;5081989;28;20059;-50
2024/01/23 09:50:10;;;;;;;38.72;5.45;;;8.20;99.90;;;;;;5068226;28;20024;-50
2024/01/23 09:52:35;;;;;;;31.92;4.60;;;8.20;99.90;;;;;;5065471;28;20058;-50
2024/01/23 09:55:01;;;;;;;26.95;4.35;;;8.20;99.90;;;;;;5064295;28;20029;-50
2024/01/23 09:57:26;;;;;;;33.92;4.00;;;8.20;99.90;;;;;;5064160;28;20028;-50
2024/01/23 09:59:52;;;;;;;27.15;4.38;;;8.20;99.90;;;;;;5070402;28;20035;-50
2024/01/23 10:02:17;;;;;;;19.50;3.70;;;8.20;99.90;;;;;;5088074;28;20480;-50
2024/01/23 10:04:43;;;;;;;19.73;3.60;;;8.20;99.90;;;;;;5050024;28;20052;-50
2024/01/23 10:07:09;;;;;;;27.33;3.67;;;8.20;99.90;;;;;;5068908;28;20039;-50
2024/01/23 10:09:34;;;;;;;20.85;3.85;;;8.20;99.90;;;;;;5072156;28;20032;-50
2024/01/23 10:12:00;;;;;;;32.05;4.68;;;8.20;99.90;;;;;;5066933;28;20194;-50
2024/01/23 10:14:25;;;;;;;29.73;4.70;;;8.20;99.90;;;;;;5094080;28;20100;-50
2024/01/23 10:16:51;;;;;;;44.17;4.72;;;8.20;99.90;;;;;;5082664;28;20032;-50
2024/01/23 10:19:16;;;;;;;35.33;5.13;;;8.20;99.90;;;;;;5066032;28;20396;-50
2024/01/23 10:21:42;;;;;;;26.60;4.20;;;8.20;99.90;;;;;;5087201;28;20028;-50
2024/01/23 10:24:08;;;;;;;33.35;5.53;;;8.20;99.90;;;;;;5082796;28;20040;-50
2024/01/23 10:26:33;;;;;;;39.70;5.20;;;8.20;99.90;;;;;;5061242;28;20575;-50
2024/01/23 10:29:01;;;;;;;30.80;3.85;;;8.20;99.90;;;;;;5067218;28;20017;-50
2024/01/23 10:31:27;;;;;;;40.70;5.78;;;8.20;99.90;;;;;;5073055;28;20073;-50
2024/01/23 10:33:52;;;;;;;40.70;5.00;;;8.30;99.90;;;;;;5073888;28;20029;-50
2024/01/23 10:36:18;;;;;;;34.80;4.63;;;8.20;99.90;;;;;;5094128;28;20036;-50
2024/01/23 10:38:43;;;;;;;25.23;3.65;;;8.30;99.90;;;;;;5072033;28;20070;-50
2024/01/23 10:41:09;;;;;;;29.50;4.10;;;8.30;99.90;;;;;;5074293;28;20117;-50
2024/01/23 10:43:35;;;;;;;41.72;4.53;;;8.40;99.90;;;;;;5065640;28;20051;-51
2024/01/23 10:46:04;;;;;;;28.40;4.20;;;8.30;99.90;;;;;;5090001;28;20032;-50
2024/01/23 10:48:32;;;;;;;43.13;5.55;;;8.40;99.90;;;;;;5088361;28;20036;-50
2024/01/23 10:51:03;;;;;;;31.35;4.05;;;8.40;99.90;;;;;;5088277;28;20029;-50
2024/01/23 10:53:43;;;;;;;31.30;4.03;;;8.40;99.90;;;;;;5055115;28;20032;-50
2024/01/23 10:56:08;;;;;;;18.02;3.25;;;8.50;99.90;;;;;;5070263;28;20042;-50
2024/01/23 10:58:37;;;;;;;30.05;3.42;;;8.50;99.90;;;;;;5076110;28;20110;-50
2024/01/23 11:01:03;;;;;;;21.00;3.47;;;8.50;99.90;;;;;;5065440;28;20028;-50
2024/01/23 11:03:30;;;;;;;22.23;3.35;;;8.50;99.90;;;;;;5079185;28;20017;-50
2024/01/23 11:06:01;;;;;;;20.17;3.85;;;8.50;99.90;;;;;;5076724;28;20111;-51
2024/01/23 11:08:43;;;;;;;27.08;4.47;;;8.60;99.90;;;;;;5071778;28;20081;-51
2024/01/23 11:11:36;;;;;;;23.70;3.65;;;8.60;99.90;;;;;;5083769;28;20039;-50
2024/01/23 11:14:20;;;;;;;21.13;3.90;;;8.60;99.90;;;;;;5076604;28;20103;-50
2024/01/23 11:17:09;;;;;;;32.78;4.03;;;8.60;99.90;;;;;;5067432;28;20036;-50
2024/01/23 11:19:45;;;;;;;19.48;3.28;;;8.60;99.90;;;;;;5092475;28;20063;-50
2024/01/23 11:22:11;;;;;;;41.85;4.57;;;8.60;99.90;;;;;;5062341;28;20020;-50
2024/01/23 11:24:40;;;;;;;39.28;5.25;;;8.60;99.90;;;;;;5050263;28;20059;-50
2024/01/23 11:27:06;;;;;;;26.40;3.92;;;8.70;99.90;;;;;;5081244;28;20016;-50
2024/01/23 11:29:33;;;;;;;31.02;5.00;;;8.70;99.90;;;;;;5059753;28;20060;-50
2024/01/23 11:31:58;;;;;;;37.97;5.03;;;8.70;99.90;;;;;;5083403;28;20029;-50
2024/01/23 11:34:24;;;;;;;44.53;6.57;;;8.80;99.90;;;;;;5011231;28;20043;-50
2024/01/23 11:36:49;;;;;;;110.57;10.98;;;8.80;99.90;;;;;;5007209;28;20052;-50
2024/01/23 11:39:15;;;;;;;70.38;8.63;;;8.80;99.90;;;;;;5072052;28;20029;-50
2024/01/23 11:41:47;;;;;;;39.15;5.15;;;8.80;99.90;;;;;;5065531;28;20063;-49
2024/01/23 11:44:13;;;;;;;35.95;4.40;;;8.80;99.90;;;;;;5084816;28;20028;-50
2024/01/23 11:46:39;;;;;;;36.55;4.47;;;8.80;99.90;;;;;;5090992;28;20028;-50
2024/01/23 11:49:05;;;;;;;74.15;9.57;;;8.90;99.90;;;;;;5073473;28;20078;-50
2024/01/23 11:51:31;;;;;;;150.18;15.57;;;8.90;99.90;;;;;;5075540;28;20059;-50
2024/01/23 11:53:58;;;;;;;40.50;6.25;;;8.90;99.90;;;;;;5069375;28;20021;-50
2024/01/23 11:56:23;;;;;;;66.30;8.15;;;8.90;99.90;;;;;;5069411;28;20028;-50
2024/01/23 11:58:49;;;;;;;75.15;9.55;;;8.90;99.90;;;;;;5088116;28;20085;-48
2024/01/23 12:01:15;;;;;;;66.03;8.75;;;9.00;99.90;;;;;;5081408;28;20033;-50
2024/01/23 12:03:48;;;;;;;47.38;5.53;;;9.00;99.90;;;;;;5051431;28;20033;-49
2024/01/23 12:06:17;;;;;;;45.47;6.40;;;9.00;99.90;;;;;;5082825;28;20032;-51
2024/01/23 12:08:45;;;;;;;58.90;7.70;;;9.10;99.90;;;;;;5072151;28;20036;-50
2024/01/23 12:11:15;;;;;;;64.07;8.25;;;9.10;99.90;;;;;;5069933;28;20120;-50
2024/01/23 12:13:48;;;;;;;61.53;8.80;;;9.10;99.90;;;;;;5072572;28;20123;-50
2024/01/23 12:16:14;;;;;;;58.50;7.53;;;9.10;99.90;;;;;;5081026;28;20037;-50
2024/01/23 12:18:40;;;;;;;69.68;7.90;;;9.10;99.90;;;;;;5052178;28;20051;-50
2024/01/23 12:21:05;;;;;;;61.05;8.70;;;9.20;99.90;;;;;;5081374;28;20040;-50
2024/01/23 12:23:34;;;;;;;83.60;9.88;;;9.20;99.90;;;;;;5067760;28;20041;-51
2024/01/23 12:26:00;;;;;;;96.00;10.32;;;9.20;99.90;;;;;;5071589;28;20025;-50
2024/01/23 12:28:31;;;;;;;87.80;9.73;;;9.20;99.90;;;;;;5059165;28;20091;-50
2024/01/23 12:30:57;;;;;;;71.30;8.13;;;9.20;99.90;;;;;;5071485;28;20460;-50
2024/01/23 12:33:23;;;;;;;45.38;7.40;;;9.20;99.90;;;;;;5080989;28;20090;-50
2024/01/23 12:35:49;;;;;;;47.22;8.75;;;9.30;99.90;;;;;;5082437;28;20036;-50
2024/01/23 12:38:15;;;;;;;43.78;5.97;;;9.30;99.90;;;;;;5071788;28;20040;-50
2024/01/23 12:40:41;;;;;;;77.72;8.55;;;9.30;99.90;;;;;;5083892;28;20047;-50
2024/01/23 12:43:07;;;;;;;66.68;9.10;;;9.30;99.90;;;;;;5061277;28;20032;-50
2024/01/23 12:45:33;;;;;;;67.07;8.18;;;9.30;99.90;;;;;;5077765;28;20035;-50